Terminal Aerodrome Forecast
Issued by NWS

Home | Current Version | Previous Version | Text Only | Print | Product List | Glossary On
Versions: 1 2 3 4 5 6 7 8 9 10 11 12 13 14
000
FTUS41 KPHI 271309 AAA
TAFMIV
TAF AMD
KMIV 271309Z 2713/2812 22006KT P6SM FEW015 BKN120
      TEMPO 2713/2715 BKN015
     FM271500 21008G15KT P6SM SCT080
     FM272000 19012G20KT P6SM BKN045
     FM280000 20007KT P6SM BKN120
     FM280900 20003KT 4SM BR SCT015=

USA.gov is the U.S. government's official web portal to all federal, state and local government web resources and services.